sensor_id;sensor_type;location;lat;lon;timestamp;P1;durP1;ratioP1;P2;durP2;ratioP2
27533;SDS011;14973;51.460;7.008;2022-10-17T00:01:05;11.98;;;9.18;;
27533;SDS011;14973;51.460;7.008;2022-10-17T00:03:32;14.38;;;10.45;;
27533;SDS011;14973;51.460;7.008;2022-10-17T00:05:58;15.45;;;9.75;;
27533;SDS011;14973;51.460;7.008;2022-10-17T00:08:28;20.50;;;10.63;;
27533;SDS011;14973;51.460;7.008;2022-10-17T00:10:59;14.70;;;10.10;;
27533;SDS011;14973;51.460;7.008;2022-10-17T00:13:30;15.25;;;9.82;;
27533;SDS011;14973;51.460;7.008;2022-10-17T00:15:56;13.80;;;9.48;;
27533;SDS011;14973;51.460;7.008;2022-10-17T00:18:22;16.50;;;9.95;;
27533;SDS011;14973;51.460;7.008;2022-10-17T00:20:48;16.15;;;10.05;;
27533;SDS011;14973;51.460;7.008;2022-10-17T00:23:14;17.60;;;9.50;;
27533;SDS011;14973;51.460;7.008;2022-10-17T00:25:39;14.32;;;9.35;;
27533;SDS011;14973;51.460;7.008;2022-10-17T00:28:07;19.67;;;8.93;;
27533;SDS011;14973;51.460;7.008;2022-10-17T00:30:35;16.08;;;8.65;;
27533;SDS011;14973;51.460;7.008;2022-10-17T00:33:01;13.02;;;8.25;;
27533;SDS011;14973;51.460;7.008;2022-10-17T00:35:26;13.85;;;7.80;;
27533;SDS011;14973;51.460;7.008;2022-10-17T00:37:52;17.33;;;8.32;;
27533;SDS011;14973;51.460;7.008;2022-10-17T00:40:18;13.65;;;7.68;;
27533;SDS011;14973;51.460;7.008;2022-10-17T00:42:43;12.98;;;6.68;;
27533;SDS011;14973;51.460;7.008;2022-10-17T00:47:58;15.32;;;7.70;;
27533;SDS011;14973;51.460;7.008;2022-10-17T00:50:29;23.80;;;7.47;;
27533;SDS011;14973;51.460;7.008;2022-10-17T00:52:56;10.75;;;6.47;;
27533;SDS011;14973;51.460;7.008;2022-10-17T00:55:26;16.73;;;6.70;;
27533;SDS011;14973;51.460;7.008;2022-10-17T00:57:55;13.98;;;5.90;;
27533;SDS011;14973;51.460;7.008;2022-10-17T01:00:22;9.60;;;6.93;;
27533;SDS011;14973;51.460;7.008;2022-10-17T01:02:49;9.73;;;6.38;;
27533;SDS011;14973;51.460;7.008;2022-10-17T01:05:14;11.07;;;6.40;;
27533;SDS011;14973;51.460;7.008;2022-10-17T01:07:42;12.48;;;6.25;;
27533;SDS011;14973;51.460;7.008;2022-10-17T01:10:10;17.77;;;5.95;;
27533;SDS011;14973;51.460;7.008;2022-10-17T01:15:11;9.68;;;5.65;;
27533;SDS011;14973;51.460;7.008;2022-10-17T01:31:53;14.75;;;6.25;;
27533;SDS011;14973;51.460;7.008;2022-10-17T01:34:42;15.10;;;6.18;;
27533;SDS011;14973;51.460;7.008;2022-10-17T01:37:15;12.10;;;5.85;;
27533;SDS011;14973;51.460;7.008;2022-10-17T01:39:49;23.55;;;5.85;;
27533;SDS011;14973;51.460;7.008;2022-10-17T01:42:32;7.78;;;5.32;;
27533;SDS011;14973;51.460;7.008;2022-10-17T01:48:07;9.20;;;5.90;;
27533;SDS011;14973;51.460;7.008;2022-10-17T01:50:40;11.73;;;5.95;;
27533;SDS011;14973;51.460;7.008;2022-10-17T01:53:13;20.27;;;6.38;;
27533;SDS011;14973;51.460;7.008;2022-10-17T01:56:06;14.50;;;5.53;;
27533;SDS011;14973;51.460;7.008;2022-10-17T01:58:38;12.23;;;6.03;;
27533;SDS011;14973;51.460;7.008;2022-10-17T02:01:08;19.60;;;5.87;;
27533;SDS011;14973;51.460;7.008;2022-10-17T02:03:36;13.18;;;6.50;;
27533;SDS011;14973;51.460;7.008;2022-10-17T02:06:03;12.63;;;5.43;;
27533;SDS011;14973;51.460;7.008;2022-10-17T02:08:43;9.40;;;4.97;;
27533;SDS011;14973;51.460;7.008;2022-10-17T02:11:17;12.57;;;5.40;;
27533;SDS011;14973;51.460;7.008;2022-10-17T02:27:41;16.38;;;6.13;;
27533;SDS011;14973;51.460;7.008;2022-10-17T02:32:57;10.00;;;5.90;;
27533;SDS011;14973;51.460;7.008;2022-10-17T02:35:28;11.68;;;5.50;;
27533;SDS011;14973;51.460;7.008;2022-10-17T02:37:56;7.97;;;5.15;;
27533;SDS011;14973;51.460;7.008;2022-10-17T02:40:23;18.45;;;5.60;;
27533;SDS011;14973;51.460;7.008;2022-10-17T02:42:50;9.63;;;5.60;;
27533;SDS011;14973;51.460;7.008;2022-10-17T02:45:19;11.07;;;5.90;;
27533;SDS011;14973;51.460;7.008;2022-10-17T02:50:33;15.27;;;5.50;;
27533;SDS011;14973;51.460;7.008;2022-10-17T02:53:13;10.40;;;6.00;;
27533;SDS011;14973;51.460;7.008;2022-10-17T02:55:44;12.68;;;5.38;;
27533;SDS011;14973;51.460;7.008;2022-10-17T02:58:18;9.65;;;5.15;;
27533;SDS011;14973;51.460;7.008;2022-10-17T03:00:47;10.25;;;5.80;;
27533;SDS011;14973;51.460;7.008;2022-10-17T03:03:24;12.50;;;5.72;;
27533;SDS011;14973;51.460;7.008;2022-10-17T03:05:52;13.75;;;5.68;;
27533;SDS011;14973;51.460;7.008;2022-10-17T03:08:18;13.30;;;5.50;;
27533;SDS011;14973;51.460;7.008;2022-10-17T03:10:44;14.48;;;5.40;;
27533;SDS011;14973;51.460;7.008;2022-10-17T03:13:10;19.40;;;6.15;;
27533;SDS011;14973;51.460;7.008;2022-10-17T03:15:36;11.25;;;5.10;;
27533;SDS011;14973;51.460;7.008;2022-10-17T03:18:02;14.38;;;5.28;;
27533;SDS011;14973;51.460;7.008;2022-10-17T03:20:28;16.27;;;5.63;;
27533;SDS011;14973;51.460;7.008;2022-10-17T03:22:53;14.20;;;5.00;;
27533;SDS011;14973;51.460;7.008;2022-10-17T03:25:19;11.30;;;5.40;;
27533;SDS011;14973;51.460;7.008;2022-10-17T03:27:45;11.32;;;5.30;;
27533;SDS011;14973;51.460;7.008;2022-10-17T03:30:10;11.50;;;4.97;;
27533;SDS011;14973;51.460;7.008;2022-10-17T03:32:36;12.85;;;5.25;;
27533;SDS011;14973;51.460;7.008;2022-10-17T03:35:02;15.68;;;5.30;;
27533;SDS011;14973;51.460;7.008;2022-10-17T03:37:28;12.65;;;5.28;;
27533;SDS011;14973;51.460;7.008;2022-10-17T03:39:54;12.02;;;5.10;;
27533;SDS011;14973;51.460;7.008;2022-10-17T03:42:19;9.88;;;4.72;;
27533;SDS011;14973;51.460;7.008;2022-10-17T03:44:45;11.15;;;5.22;;
27533;SDS011;14973;51.460;7.008;2022-10-17T03:47:11;12.25;;;5.53;;
27533;SDS011;14973;51.460;7.008;2022-10-17T03:49:36;12.10;;;5.13;;
27533;SDS011;14973;51.460;7.008;2022-10-17T03:52:02;7.40;;;5.30;;
27533;SDS011;14973;51.460;7.008;2022-10-17T03:54:27;11.50;;;5.07;;
27533;SDS011;14973;51.460;7.008;2022-10-17T03:56:53;11.95;;;5.45;;
27533;SDS011;14973;51.460;7.008;2022-10-17T03:59:19;14.00;;;5.57;;
27533;SDS011;14973;51.460;7.008;2022-10-17T04:01:45;13.60;;;5.35;;
27533;SDS011;14973;51.460;7.008;2022-10-17T04:04:10;8.18;;;5.20;;
27533;SDS011;14973;51.460;7.008;2022-10-17T04:06:36;11.50;;;5.28;;
27533;SDS011;14973;51.460;7.008;2022-10-17T04:09:03;9.20;;;5.20;;
27533;SDS011;14973;51.460;7.008;2022-10-17T04:11:29;22.85;;;5.78;;
27533;SDS011;14973;51.460;7.008;2022-10-17T04:13:56;13.52;;;4.90;;
27533;SDS011;14973;51.460;7.008;2022-10-17T04:16:23;13.05;;;5.15;;
27533;SDS011;14973;51.460;7.008;2022-10-17T04:18:56;12.27;;;5.05;;
27533;SDS011;14973;51.460;7.008;2022-10-17T04:21:23;21.67;;;5.97;;
27533;SDS011;14973;51.460;7.008;2022-10-17T04:23:53;8.18;;;4.60;;
27533;SDS011;14973;51.460;7.008;2022-10-17T04:26:20;6.43;;;4.55;;
27533;SDS011;14973;51.460;7.008;2022-10-17T04:28:45;19.52;;;5.15;;
27533;SDS011;14973;51.460;7.008;2022-10-17T04:31:11;12.95;;;4.75;;
27533;SDS011;14973;51.460;7.008;2022-10-17T04:33:38;19.73;;;5.22;;
27533;SDS011;14973;51.460;7.008;2022-10-17T04:36:05;10.45;;;5.00;;
27533;SDS011;14973;51.460;7.008;2022-10-17T04:38:36;7.30;;;4.55;;
27533;SDS011;14973;51.460;7.008;2022-10-17T04:41:03;14.65;;;4.82;;
27533;SDS011;14973;51.460;7.008;2022-10-17T04:43:31;16.27;;;5.75;;
27533;SDS011;14973;51.460;7.008;2022-10-17T04:45:58;8.90;;;4.88;;
27533;SDS011;14973;51.460;7.008;2022-10-17T04:48:25;11.57;;;5.00;;
27533;SDS011;14973;51.460;7.008;2022-10-17T04:50:55;11.95;;;4.90;;
27533;SDS011;14973;51.460;7.008;2022-10-17T04:53:29;14.15;;;4.82;;
27533;SDS011;14973;51.460;7.008;2022-10-17T04:55:56;14.13;;;5.00;;
27533;SDS011;14973;51.460;7.008;2022-10-17T04:58:22;6.90;;;5.03;;
27533;SDS011;14973;51.460;7.008;2022-10-17T05:00:48;9.90;;;5.32;;
27533;SDS011;14973;51.460;7.008;2022-10-17T05:03:13;15.10;;;6.00;;
27533;SDS011;14973;51.460;7.008;2022-10-17T05:05:40;13.25;;;5.22;;
27533;SDS011;14973;51.460;7.008;2022-10-17T05:08:06;11.98;;;5.65;;
27533;SDS011;14973;51.460;7.008;2022-10-17T05:10:36;10.02;;;4.70;;
27533;SDS011;14973;51.460;7.008;2022-10-17T05:13:06;9.98;;;5.00;;
27533;SDS011;14973;51.460;7.008;2022-10-17T05:15:33;8.32;;;4.65;;
27533;SDS011;14973;51.460;7.008;2022-10-17T05:17:59;9.20;;;4.68;;
27533;SDS011;14973;51.460;7.008;2022-10-17T05:20:24;10.95;;;5.28;;
27533;SDS011;14973;51.460;7.008;2022-10-17T05:22:50;11.25;;;5.20;;
27533;SDS011;14973;51.460;7.008;2022-10-17T05:25:16;12.95;;;5.03;;
27533;SDS011;14973;51.460;7.008;2022-10-17T05:27:42;11.70;;;5.03;;
27533;SDS011;14973;51.460;7.008;2022-10-17T05:30:08;11.82;;;5.60;;
27533;SDS011;14973;51.460;7.008;2022-10-17T05:32:34;17.17;;;5.03;;
27533;SDS011;14973;51.460;7.008;2022-10-17T05:34:59;8.98;;;5.07;;
27533;SDS011;14973;51.460;7.008;2022-10-17T05:37:25;12.23;;;4.65;;
27533;SDS011;14973;51.460;7.008;2022-10-17T05:39:54;14.57;;;4.93;;
27533;SDS011;14973;51.460;7.008;2022-10-17T05:42:19;17.33;;;4.70;;
27533;SDS011;14973;51.460;7.008;2022-10-17T05:44:45;10.43;;;5.00;;
27533;SDS011;14973;51.460;7.008;2022-10-17T05:47:11;11.00;;;4.97;;
27533;SDS011;14973;51.460;7.008;2022-10-17T05:49:36;7.93;;;5.07;;
27533;SDS011;14973;51.460;7.008;2022-10-17T05:52:02;11.73;;;5.00;;
27533;SDS011;14973;51.460;7.008;2022-10-17T05:54:28;15.13;;;5.38;;
27533;SDS011;14973;51.460;7.008;2022-10-17T05:56:54;13.25;;;5.25;;
27533;SDS011;14973;51.460;7.008;2022-10-17T05:59:20;18.75;;;5.35;;
27533;SDS011;14973;51.460;7.008;2022-10-17T06:01:46;9.30;;;5.38;;
27533;SDS011;14973;51.460;7.008;2022-10-17T06:04:12;7.95;;;4.95;;
27533;SDS011;14973;51.460;7.008;2022-10-17T06:06:38;12.45;;;5.18;;
27533;SDS011;14973;51.460;7.008;2022-10-17T06:09:04;14.27;;;4.80;;
27533;SDS011;14973;51.460;7.008;2022-10-17T06:11:30;14.90;;;5.55;;
27533;SDS011;14973;51.460;7.008;2022-10-17T06:13:56;12.05;;;4.65;;
27533;SDS011;14973;51.460;7.008;2022-10-17T06:16:21;11.52;;;5.07;;
27533;SDS011;14973;51.460;7.008;2022-10-17T06:18:47;17.77;;;8.77;;
27533;SDS011;14973;51.460;7.008;2022-10-17T06:21:14;7.60;;;4.53;;
27533;SDS011;14973;51.460;7.008;2022-10-17T06:23:42;9.50;;;4.60;;
27533;SDS011;14973;51.460;7.008;2022-10-17T06:26:08;14.57;;;5.35;;
27533;SDS011;14973;51.460;7.008;2022-10-17T06:28:34;19.88;;;6.72;;
27533;SDS011;14973;51.460;7.008;2022-10-17T06:31:07;16.63;;;4.50;;
27533;SDS011;14973;51.460;7.008;2022-10-17T06:33:34;13.15;;;5.40;;
27533;SDS011;14973;51.460;7.008;2022-10-17T06:36:00;13.68;;;4.60;;
27533;SDS011;14973;51.460;7.008;2022-10-17T06:38:27;14.05;;;5.45;;
27533;SDS011;14973;51.460;7.008;2022-10-17T06:40:52;18.23;;;4.70;;
27533;SDS011;14973;51.460;7.008;2022-10-17T06:43:18;12.63;;;4.72;;
27533;SDS011;14973;51.460;7.008;2022-10-17T06:45:45;20.63;;;6.15;;
27533;SDS011;14973;51.460;7.008;2022-10-17T06:48:11;17.35;;;4.85;;
27533;SDS011;14973;51.460;7.008;2022-10-17T06:50:37;9.23;;;4.38;;
27533;SDS011;14973;51.460;7.008;2022-10-17T06:53:03;8.35;;;4.90;;
27533;SDS011;14973;51.460;7.008;2022-10-17T06:55:29;13.95;;;4.40;;
27533;SDS011;14973;51.460;7.008;2022-10-17T06:57:55;12.20;;;5.20;;
27533;SDS011;14973;51.460;7.008;2022-10-17T07:00:21;8.63;;;4.53;;
27533;SDS011;14973;51.460;7.008;2022-10-17T07:02:47;13.85;;;4.38;;
27533;SDS011;14973;51.460;7.008;2022-10-17T07:05:13;11.95;;;4.57;;
27533;SDS011;14973;51.460;7.008;2022-10-17T07:07:39;9.10;;;4.75;;
27533;SDS011;14973;51.460;7.008;2022-10-17T07:10:05;7.82;;;4.38;;
27533;SDS011;14973;51.460;7.008;2022-10-17T07:12:32;18.20;;;5.28;;
27533;SDS011;14973;51.460;7.008;2022-10-17T07:14:59;13.02;;;4.30;;
27533;SDS011;14973;51.460;7.008;2022-10-17T07:17:25;13.15;;;4.90;;
27533;SDS011;14973;51.460;7.008;2022-10-17T07:19:51;16.55;;;4.22;;
27533;SDS011;14973;51.460;7.008;2022-10-17T07:22:16;19.75;;;4.18;;
27533;SDS011;14973;51.460;7.008;2022-10-17T07:24:42;10.38;;;4.38;;
27533;SDS011;14973;51.460;7.008;2022-10-17T07:27:07;24.75;;;5.43;;
27533;SDS011;14973;51.460;7.008;2022-10-17T07:29:33;8.85;;;4.10;;
27533;SDS011;14973;51.460;7.008;2022-10-17T07:32:00;10.57;;;4.22;;
27533;SDS011;14973;51.460;7.008;2022-10-17T07:34:27;12.88;;;4.00;;
27533;SDS011;14973;51.460;7.008;2022-10-17T07:36:55;11.35;;;4.68;;
27533;SDS011;14973;51.460;7.008;2022-10-17T07:39:21;11.70;;;3.88;;
27533;SDS011;14973;51.460;7.008;2022-10-17T07:41:47;15.25;;;3.67;;
27533;SDS011;14973;51.460;7.008;2022-10-17T07:44:14;11.90;;;5.15;;
27533;SDS011;14973;51.460;7.008;2022-10-17T07:46:40;14.00;;;4.10;;
27533;SDS011;14973;51.460;7.008;2022-10-17T07:49:05;11.80;;;4.28;;
27533;SDS011;14973;51.460;7.008;2022-10-17T07:51:31;8.57;;;3.90;;
27533;SDS011;14973;51.460;7.008;2022-10-17T07:53:57;13.38;;;3.70;;
27533;SDS011;14973;51.460;7.008;2022-10-17T07:56:23;10.88;;;4.13;;
27533;SDS011;14973;51.460;7.008;2022-10-17T07:58:49;6.00;;;3.72;;
27533;SDS011;14973;51.460;7.008;2022-10-17T08:01:16;11.05;;;4.13;;
27533;SDS011;14973;51.460;7.008;2022-10-17T08:03:45;7.13;;;3.78;;
27533;SDS011;14973;51.460;7.008;2022-10-17T08:06:12;11.88;;;4.45;;
27533;SDS011;14973;51.460;7.008;2022-10-17T08:08:38;9.07;;;4.13;;
27533;SDS011;14973;51.460;7.008;2022-10-17T08:11:05;13.57;;;4.38;;
27533;SDS011;14973;51.460;7.008;2022-10-17T08:13:33;18.83;;;4.20;;
27533;SDS011;14973;51.460;7.008;2022-10-17T08:16:03;8.07;;;3.53;;
27533;SDS011;14973;51.460;7.008;2022-10-17T08:18:31;11.20;;;3.20;;
27533;SDS011;14973;51.460;7.008;2022-10-17T08:21:01;16.83;;;3.88;;
27533;SDS011;14973;51.460;7.008;2022-10-17T08:23:30;9.52;;;3.50;;
27533;SDS011;14973;51.460;7.008;2022-10-17T08:25:59;9.07;;;3.42;;
27533;SDS011;14973;51.460;7.008;2022-10-17T08:28:26;8.98;;;3.22;;
27533;SDS011;14973;51.460;7.008;2022-10-17T08:30:52;12.73;;;5.22;;
27533;SDS011;14973;51.460;7.008;2022-10-17T08:33:17;6.60;;;2.92;;
27533;SDS011;14973;51.460;7.008;2022-10-17T08:35:43;11.73;;;3.80;;
27533;SDS011;14973;51.460;7.008;2022-10-17T08:38:08;8.07;;;2.97;;
27533;SDS011;14973;51.460;7.008;2022-10-17T08:40:34;9.80;;;3.42;;
27533;SDS011;14973;51.460;7.008;2022-10-17T08:45:37;9.95;;;3.10;;
27533;SDS011;14973;51.460;7.008;2022-10-17T08:48:18;12.65;;;3.17;;
27533;SDS011;14973;51.460;7.008;2022-10-17T08:50:51;6.05;;;3.05;;
27533;SDS011;14973;51.460;7.008;2022-10-17T08:53:37;17.95;;;2.92;;
27533;SDS011;14973;51.460;7.008;2022-10-17T08:56:25;9.38;;;2.65;;
27533;SDS011;14973;51.460;7.008;2022-10-17T08:58:59;8.15;;;3.45;;
27533;SDS011;14973;51.460;7.008;2022-10-17T09:01:31;12.20;;;4.25;;
27533;SDS011;14973;51.460;7.008;2022-10-17T09:09:30;10.48;;;2.80;;
27533;SDS011;14973;51.460;7.008;2022-10-17T09:12:35;10.68;;;3.25;;
27533;SDS011;14973;51.460;7.008;2022-10-17T09:20:23;11.43;;;3.67;;
27533;SDS011;14973;51.460;7.008;2022-10-17T09:25:23;10.60;;;3.50;;
27533;SDS011;14973;51.460;7.008;2022-10-17T09:27:51;14.63;;;3.55;;
27533;SDS011;14973;51.460;7.008;2022-10-17T09:35:38;24.60;;;3.80;;
27533;SDS011;14973;51.460;7.008;2022-10-17T09:38:08;17.27;;;3.80;;
27533;SDS011;14973;51.460;7.008;2022-10-17T09:40:41;10.95;;;3.60;;
27533;SDS011;14973;51.460;7.008;2022-10-17T09:43:08;11.77;;;3.92;;
27533;SDS011;14973;51.460;7.008;2022-10-17T09:46:23;10.80;;;3.90;;
27533;SDS011;14973;51.460;7.008;2022-10-17T09:48:37;11.32;;;3.60;;
27533;SDS011;14973;51.460;7.008;2022-10-17T09:51:10;12.10;;;3.53;;
27533;SDS011;14973;51.460;7.008;2022-10-17T09:53:39;9.88;;;3.70;;
27533;SDS011;14973;51.460;7.008;2022-10-17T09:56:12;9.45;;;3.92;;
27533;SDS011;14973;51.460;7.008;2022-10-17T09:58:44;20.55;;;10.15;;
27533;SDS011;14973;51.460;7.008;2022-10-17T10:01:15;14.32;;;4.57;;
27533;SDS011;14973;51.460;7.008;2022-10-17T10:03:44;14.90;;;5.05;;
27533;SDS011;14973;51.460;7.008;2022-10-17T10:06:15;12.95;;;3.97;;
27533;SDS011;14973;51.460;7.008;2022-10-17T10:11:22;17.13;;;4.55;;
27533;SDS011;14973;51.460;7.008;2022-10-17T10:13:50;7.68;;;4.18;;
27533;SDS011;14973;51.460;7.008;2022-10-17T10:16:20;22.88;;;5.20;;
27533;SDS011;14973;51.460;7.008;2022-10-17T10:18:48;11.73;;;4.30;;
27533;SDS011;14973;51.460;7.008;2022-10-17T10:21:16;16.40;;;4.68;;
27533;SDS011;14973;51.460;7.008;2022-10-17T10:24:04;10.68;;;4.47;;
27533;SDS011;14973;51.460;7.008;2022-10-17T10:29:17;8.18;;;3.60;;
27533;SDS011;14973;51.460;7.008;2022-10-17T10:31:46;12.90;;;3.95;;
27533;SDS011;14973;51.460;7.008;2022-10-17T10:34:24;14.88;;;4.85;;
27533;SDS011;14973;51.460;7.008;2022-10-17T10:36:54;15.60;;;3.83;;
27533;SDS011;14973;51.460;7.008;2022-10-17T10:41:59;8.32;;;4.15;;
27533;SDS011;14973;51.460;7.008;2022-10-17T10:44:28;16.52;;;3.78;;
27533;SDS011;14973;51.460;7.008;2022-10-17T10:49:40;16.98;;;3.97;;
27533;SDS011;14973;51.460;7.008;2022-10-17T10:52:06;15.50;;;4.00;;
27533;SDS011;14973;51.460;7.008;2022-10-17T10:54:52;14.95;;;3.90;;
27533;SDS011;14973;51.460;7.008;2022-10-17T10:57:27;11.15;;;3.75;;
27533;SDS011;14973;51.460;7.008;2022-10-17T10:59:58;15.90;;;4.05;;
27533;SDS011;14973;51.460;7.008;2022-10-17T11:02:41;18.20;;;4.55;;
27533;SDS011;14973;51.460;7.008;2022-10-17T11:05:20;18.48;;;4.15;;
27533;SDS011;14973;51.460;7.008;2022-10-17T11:08:28;9.10;;;3.75;;
27533;SDS011;14973;51.460;7.008;2022-10-17T11:13:42;8.52;;;3.95;;
27533;SDS011;14973;51.460;7.008;2022-10-17T11:16:33;16.50;;;4.60;;
27533;SDS011;14973;51.460;7.008;2022-10-17T11:22:22;15.70;;;4.70;;
27533;SDS011;14973;51.460;7.008;2022-10-17T11:24:55;17.42;;;5.75;;
27533;SDS011;14973;51.460;7.008;2022-10-17T11:27:25;17.50;;;4.65;;
27533;SDS011;14973;51.460;7.008;2022-10-17T11:29:53;12.18;;;4.03;;
27533;SDS011;14973;51.460;7.008;2022-10-17T11:32:21;17.73;;;4.13;;
27533;SDS011;14973;51.460;7.008;2022-10-17T11:34:55;14.40;;;4.45;;
27533;SDS011;14973;51.460;7.008;2022-10-17T11:37:29;15.52;;;5.25;;
27533;SDS011;14973;51.460;7.008;2022-10-17T11:40:01;14.43;;;4.60;;
27533;SDS011;14973;51.460;7.008;2022-10-17T11:42:31;15.93;;;5.88;;
27533;SDS011;14973;51.460;7.008;2022-10-17T11:45:16;17.75;;;5.20;;
27533;SDS011;14973;51.460;7.008;2022-10-17T11:47:48;9.43;;;4.13;;
27533;SDS011;14973;51.460;7.008;2022-10-17T11:50:34;15.80;;;4.80;;
27533;SDS011;14973;51.460;7.008;2022-10-17T11:53:08;18.65;;;4.97;;
27533;SDS011;14973;51.460;7.008;2022-10-17T11:55:38;19.70;;;4.82;;
27533;SDS011;14973;51.460;7.008;2022-10-17T12:06:19;18.52;;;5.50;;
27533;SDS011;14973;51.460;7.008;2022-10-17T12:11:28;13.75;;;4.75;;
27533;SDS011;14973;51.460;7.008;2022-10-17T12:14:02;14.10;;;4.72;;
27533;SDS011;14973;51.460;7.008;2022-10-17T12:16:48;17.98;;;4.90;;
27533;SDS011;14973;51.460;7.008;2022-10-17T12:19:20;13.18;;;4.90;;
27533;SDS011;14973;51.460;7.008;2022-10-17T12:24:43;13.27;;;4.78;;
27533;SDS011;14973;51.460;7.008;2022-10-17T12:32:58;19.17;;;8.35;;
27533;SDS011;14973;51.460;7.008;2022-10-17T12:35:27;12.02;;;5.05;;
27533;SDS011;14973;51.460;7.008;2022-10-17T12:43:31;12.18;;;5.63;;
27533;SDS011;14973;51.460;7.008;2022-10-17T12:51:07;18.08;;;5.30;;
27533;SDS011;14973;51.460;7.008;2022-10-17T12:56:21;16.58;;;5.43;;
27533;SDS011;14973;51.460;7.008;2022-10-17T12:59:21;15.18;;;5.32;;
27533;SDS011;14973;51.460;7.008;2022-10-17T13:01:53;9.77;;;5.57;;
27533;SDS011;14973;51.460;7.008;2022-10-17T13:04:22;15.50;;;5.97;;
27533;SDS011;14973;51.460;7.008;2022-10-17T13:06:56;19.27;;;5.75;;
27533;SDS011;14973;51.460;7.008;2022-10-17T13:11:50;17.40;;;5.80;;
27533;SDS011;14973;51.460;7.008;2022-10-17T13:14:17;17.27;;;6.28;;
27533;SDS011;14973;51.460;7.008;2022-10-17T13:16:55;17.05;;;6.22;;
27533;SDS011;14973;51.460;7.008;2022-10-17T13:19:24;17.13;;;5.05;;
27533;SDS011;14973;51.460;7.008;2022-10-17T13:22:00;15.38;;;5.43;;
27533;SDS011;14973;51.460;7.008;2022-10-17T13:24:31;13.25;;;5.45;;
27533;SDS011;14973;51.460;7.008;2022-10-17T13:27:01;20.45;;;5.43;;
27533;SDS011;14973;51.460;7.008;2022-10-17T13:29:28;16.30;;;6.45;;
27533;SDS011;14973;51.460;7.008;2022-10-17T13:31:59;14.45;;;5.65;;
27533;SDS011;14973;51.460;7.008;2022-10-17T13:34:28;17.33;;;5.70;;
27533;SDS011;14973;51.460;7.008;2022-10-17T13:36:57;23.33;;;5.85;;
27533;SDS011;14973;51.460;7.008;2022-10-17T13:39:28;17.00;;;5.68;;
27533;SDS011;14973;51.460;7.008;2022-10-17T13:41:59;14.98;;;6.13;;
27533;SDS011;14973;51.460;7.008;2022-10-17T13:44:26;16.02;;;6.07;;
27533;SDS011;14973;51.460;7.008;2022-10-17T13:46:57;26.02;;;6.40;;
27533;SDS011;14973;51.460;7.008;2022-10-17T13:52:13;13.35;;;5.40;;
27533;SDS011;14973;51.460;7.008;2022-10-17T13:54:46;15.73;;;5.47;;
27533;SDS011;14973;51.460;7.008;2022-10-17T13:59:46;17.65;;;6.45;;
27533;SDS011;14973;51.460;7.008;2022-10-17T14:02:16;14.40;;;5.95;;
27533;SDS011;14973;51.460;7.008;2022-10-17T14:07:34;28.20;;;11.85;;
27533;SDS011;14973;51.460;7.008;2022-10-17T14:10:04;19.58;;;9.40;;
27533;SDS011;14973;51.460;7.008;2022-10-17T14:12:41;16.00;;;5.40;;
27533;SDS011;14973;51.460;7.008;2022-10-17T14:15:08;8.30;;;4.32;;
27533;SDS011;14973;51.460;7.008;2022-10-17T14:17:38;10.20;;;4.65;;
27533;SDS011;14973;51.460;7.008;2022-10-17T14:20:04;14.13;;;4.70;;
27533;SDS011;14973;51.460;7.008;2022-10-17T14:22:35;8.98;;;4.50;;
27533;SDS011;14973;51.460;7.008;2022-10-17T14:25:02;11.35;;;4.95;;
27533;SDS011;14973;51.460;7.008;2022-10-17T14:29:54;15.25;;;4.63;;
27533;SDS011;14973;51.460;7.008;2022-10-17T14:32:25;18.17;;;5.03;;
27533;SDS011;14973;51.460;7.008;2022-10-17T14:34:53;13.27;;;4.93;;
27533;SDS011;14973;51.460;7.008;2022-10-17T14:37:39;17.67;;;4.85;;
27533;SDS011;14973;51.460;7.008;2022-10-17T14:40:14;7.72;;;4.32;;
27533;SDS011;14973;51.460;7.008;2022-10-17T14:42:42;12.88;;;5.38;;
27533;SDS011;14973;51.460;7.008;2022-10-17T14:45:14;12.82;;;5.43;;
27533;SDS011;14973;51.460;7.008;2022-10-17T14:47:50;17.42;;;5.13;;
27533;SDS011;14973;51.460;7.008;2022-10-17T14:50:24;13.55;;;4.30;;
27533;SDS011;14973;51.460;7.008;2022-10-17T14:52:58;11.63;;;4.35;;
27533;SDS011;14973;51.460;7.008;2022-10-17T14:55:26;13.23;;;4.80;;
27533;SDS011;14973;51.460;7.008;2022-10-17T14:57:53;13.23;;;4.90;;
27533;SDS011;14973;51.460;7.008;2022-10-17T15:00:19;16.10;;;5.80;;
27533;SDS011;14973;51.460;7.008;2022-10-17T15:02:46;13.80;;;5.25;;
27533;SDS011;14973;51.460;7.008;2022-10-17T15:05:13;15.32;;;4.53;;
27533;SDS011;14973;51.460;7.008;2022-10-17T15:07:39;13.30;;;5.00;;
27533;SDS011;14973;51.460;7.008;2022-10-17T15:10:08;15.35;;;4.80;;
27533;SDS011;14973;51.460;7.008;2022-10-17T15:12:54;12.80;;;4.55;;
27533;SDS011;14973;51.460;7.008;2022-10-17T15:15:19;15.25;;;5.20;;
27533;SDS011;14973;51.460;7.008;2022-10-17T15:17:45;11.93;;;5.68;;
27533;SDS011;14973;51.460;7.008;2022-10-17T15:20:11;18.27;;;5.63;;
27533;SDS011;14973;51.460;7.008;2022-10-17T15:22:39;14.18;;;5.43;;
27533;SDS011;14973;51.460;7.008;2022-10-17T15:25:05;17.70;;;6.30;;
27533;SDS011;14973;51.460;7.008;2022-10-17T15:27:31;21.83;;;5.25;;
27533;SDS011;14973;51.460;7.008;2022-10-17T15:29:57;15.38;;;6.40;;
27533;SDS011;14973;51.460;7.008;2022-10-17T15:32:22;15.75;;;5.32;;
27533;SDS011;14973;51.460;7.008;2022-10-17T15:34:48;13.48;;;5.32;;
27533;SDS011;14973;51.460;7.008;2022-10-17T15:37:23;14.48;;;5.53;;
27533;SDS011;14973;51.460;7.008;2022-10-17T15:39:53;17.20;;;5.50;;
27533;SDS011;14973;51.460;7.008;2022-10-17T15:42:25;9.77;;;5.25;;
27533;SDS011;14973;51.460;7.008;2022-10-17T15:44:52;15.50;;;5.95;;
27533;SDS011;14973;51.460;7.008;2022-10-17T15:47:22;19.45;;;5.45;;
27533;SDS011;14973;51.460;7.008;2022-10-17T15:49:48;8.95;;;5.63;;
27533;SDS011;14973;51.460;7.008;2022-10-17T15:52:14;15.40;;;5.70;;
27533;SDS011;14973;51.460;7.008;2022-10-17T15:54:40;20.75;;;6.07;;
27533;SDS011;14973;51.460;7.008;2022-10-17T15:57:05;22.83;;;6.13;;
27533;SDS011;14973;51.460;7.008;2022-10-17T15:59:48;13.07;;;5.82;;
27533;SDS011;14973;51.460;7.008;2022-10-17T16:02:15;15.32;;;6.13;;
27533;SDS011;14973;51.460;7.008;2022-10-17T16:04:42;11.65;;;6.60;;
27533;SDS011;14973;51.460;7.008;2022-10-17T16:07:08;16.50;;;5.85;;
27533;SDS011;14973;51.460;7.008;2022-10-17T16:09:34;15.30;;;5.78;;
27533;SDS011;14973;51.460;7.008;2022-10-17T16:12:03;12.70;;;6.03;;
27533;SDS011;14973;51.460;7.008;2022-10-17T16:14:31;14.57;;;6.40;;
27533;SDS011;14973;51.460;7.008;2022-10-17T16:16:57;15.45;;;6.03;;
27533;SDS011;14973;51.460;7.008;2022-10-17T16:19:24;21.55;;;6.43;;
27533;SDS011;14973;51.460;7.008;2022-10-17T16:21:53;15.95;;;5.57;;
27533;SDS011;14973;51.460;7.008;2022-10-17T16:24:20;14.45;;;6.90;;
27533;SDS011;14973;51.460;7.008;2022-10-17T16:26:46;16.10;;;5.95;;
27533;SDS011;14973;51.460;7.008;2022-10-17T16:29:11;16.52;;;5.85;;
27533;SDS011;14973;51.460;7.008;2022-10-17T16:31:39;15.43;;;5.80;;
27533;SDS011;14973;51.460;7.008;2022-10-17T16:34:07;13.10;;;5.15;;
27533;SDS011;14973;51.460;7.008;2022-10-17T16:36:35;14.80;;;6.30;;
27533;SDS011;14973;51.460;7.008;2022-10-17T16:39:00;11.25;;;5.15;;
27533;SDS011;14973;51.460;7.008;2022-10-17T16:41:27;12.68;;;5.07;;
27533;SDS011;14973;51.460;7.008;2022-10-17T16:43:55;12.02;;;6.85;;
27533;SDS011;14973;51.460;7.008;2022-10-17T16:46:23;17.00;;;5.90;;
27533;SDS011;14973;51.460;7.008;2022-10-17T16:48:50;12.82;;;6.25;;
27533;SDS011;14973;51.460;7.008;2022-10-17T16:51:17;9.73;;;5.20;;
27533;SDS011;14973;51.460;7.008;2022-10-17T16:53:47;13.80;;;5.63;;